sensor_id;sensor_type;location;lat;lon;timestamp;pressure;altitude;pressure_sealevel;temperature;humidity
62791;BME280;48830;53.426;10.300;2023-05-23T00:02:05;101198.91;;;17.88;100.00
62791;BME280;48830;53.426;10.300;2023-05-23T00:04:33;101207.59;;;17.87;100.00
62791;BME280;48830;53.426;10.300;2023-05-23T00:07:02;101199.03;;;17.72;100.00
62791;BME280;48830;53.426;10.300;2023-05-23T00:09:27;101192.94;;;17.75;100.00
62791;BME280;48830;53.426;10.300;2023-05-23T00:11:52;101203.31;;;17.75;100.00
62791;BME280;48830;53.426;10.300;2023-05-23T00:14:18;101199.00;;;17.69;100.00
62791;BME280;48830;53.426;10.300;2023-05-23T00:16:44;101202.47;;;17.76;100.00
62791;BME280;48830;53.426;10.300;2023-05-23T00:19:11;101199.84;;;17.77;100.00
62791;BME280;48830;53.426;10.300;2023-05-23T00:21:39;101199.84;;;17.79;100.00
62791;BME280;48830;53.426;10.300;2023-05-23T00:24:06;101202.59;;;17.53;100.00
62791;BME280;48830;53.426;10.300;2023-05-23T00:26:31;101192.19;;;17.53;100.00
62791;BME280;48830;53.426;10.300;2023-05-23T00:28:57;101195.66;;;17.53;100.00
62791;BME280;48830;53.426;10.300;2023-05-23T00:31:23;101200.78;;;17.66;100.00
62791;BME280;48830;53.426;10.300;2023-05-23T00:33:48;101197.31;;;17.67;100.00
62791;BME280;48830;53.426;10.300;2023-05-23T00:36:14;101205.09;;;17.67;100.00
62791;BME280;48830;53.426;10.300;2023-05-23T00:38:40;101205.16;;;17.57;100.00
62791;BME280;48830;53.426;10.300;2023-05-23T00:41:05;101197.31;;;17.64;100.00
62791;BME280;48830;53.426;10.300;2023-05-23T00:43:31;101198.22;;;17.58;100.00
62791;BME280;48830;53.426;10.300;2023-05-23T00:45:57;101192.16;;;17.57;100.00
62791;BME280;48830;53.426;10.300;2023-05-23T00:48:25;101189.59;;;17.51;100.00
62791;BME280;48830;53.426;10.300;2023-05-23T00:50:52;101188.69;;;17.57;100.00
62791;BME280;48830;53.426;10.300;2023-05-23T00:53:18;101193.91;;;17.57;100.00
62791;BME280;48830;53.426;10.300;2023-05-23T00:55:44;101199.06;;;17.63;100.00
62791;BME280;48830;53.426;10.300;2023-05-23T00:58:10;101191.28;;;17.60;100.00
62791;BME280;48830;53.426;10.300;2023-05-23T01:00:37;101192.97;;;17.64;100.00
62791;BME280;48830;53.426;10.300;2023-05-23T01:03:03;101192.19;;;17.53;100.00
62791;BME280;48830;53.426;10.300;2023-05-23T01:05:29;101185.28;;;17.47;100.00
62791;BME280;48830;53.426;10.300;2023-05-23T01:07:55;101184.41;;;17.51;100.00
62791;BME280;48830;53.426;10.300;2023-05-23T01:10:27;101187.88;;;17.52;100.00
62791;BME280;48830;53.426;10.300;2023-05-23T01:15:38;101183.53;;;17.55;100.00
62791;BME280;48830;53.426;10.300;2023-05-23T01:18:17;101184.38;;;17.56;100.00
62791;BME280;48830;53.426;10.300;2023-05-23T01:20:54;101180.88;;;17.58;100.00
62791;BME280;48830;53.426;10.300;2023-05-23T01:26:31;101172.19;;;17.59;100.00
62791;BME280;48830;53.426;10.300;2023-05-23T01:29:08;101175.69;;;17.58;100.00
62791;BME280;48830;53.426;10.300;2023-05-23T01:31:42;101181.72;;;17.62;100.00
62791;BME280;48830;53.426;10.300;2023-05-23T01:34:11;101174.81;;;17.61;100.00
62791;BME280;48830;53.426;10.300;2023-05-23T01:36:42;101168.75;;;17.59;100.00
62791;BME280;48830;53.426;10.300;2023-05-23T01:39:07;101167.00;;;17.59;100.00
62791;BME280;48830;53.426;10.300;2023-05-23T01:41:33;101167.03;;;17.56;100.00
62791;BME280;48830;53.426;10.300;2023-05-23T01:43:59;101161.84;;;17.56;100.00
62791;BME280;48830;53.426;10.300;2023-05-23T01:46:26;101161.81;;;17.58;100.00
62791;BME280;48830;53.426;10.300;2023-05-23T01:48:53;101171.41;;;17.53;100.00
62791;BME280;48830;53.426;10.300;2023-05-23T01:51:21;101167.91;;;17.57;100.00
62791;BME280;48830;53.426;10.300;2023-05-23T01:53:48;101167.03;;;17.58;100.00
62791;BME280;48830;53.426;10.300;2023-05-23T01:56:14;101164.41;;;17.63;100.00
62791;BME280;48830;53.426;10.300;2023-05-23T01:58:40;101167.84;;;17.65;100.00
62791;BME280;48830;53.426;10.300;2023-05-23T02:01:05;101167.00;;;17.63;100.00
62791;BME280;48830;53.426;10.300;2023-05-23T02:03:31;101165.28;;;17.62;100.00
62791;BME280;48830;53.426;10.300;2023-05-23T02:05:57;101163.53;;;17.62;100.00
62791;BME280;48830;53.426;10.300;2023-05-23T02:08:22;101171.31;;;17.64;100.00
62791;BME280;48830;53.426;10.300;2023-05-23T02:10:48;101167.09;;;17.50;100.00
62791;BME280;48830;53.426;10.300;2023-05-23T02:13:13;101174.03;;;17.48;100.00
62791;BME280;48830;53.426;10.300;2023-05-23T02:15:39;101174.06;;;17.45;100.00
62791;BME280;48830;53.426;10.300;2023-05-23T02:18:05;101169.72;;;17.43;100.00
62791;BME280;48830;53.426;10.300;2023-05-23T02:20:30;101175.81;;;17.40;100.00
62791;BME280;48830;53.426;10.300;2023-05-23T02:22:56;101167.28;;;17.20;100.00
62791;BME280;48830;53.426;10.300;2023-05-23T02:25:21;101175.06;;;17.27;100.00
62791;BME280;48830;53.426;10.300;2023-05-23T02:27:47;101175.13;;;17.14;100.00
62791;BME280;48830;53.426;10.300;2023-05-23T02:30:12;101173.38;;;17.14;100.00
62791;BME280;48830;53.426;10.300;2023-05-23T02:32:38;101175.97;;;17.19;100.00
62791;BME280;48830;53.426;10.300;2023-05-23T02:35:04;101177.63;;;17.26;100.00
62791;BME280;48830;53.426;10.300;2023-05-23T02:37:30;101168.97;;;17.30;100.00
62791;BME280;48830;53.426;10.300;2023-05-23T02:39:55;101179.34;;;17.33;100.00
62791;BME280;48830;53.426;10.300;2023-05-23T02:42:21;101181.13;;;17.22;100.00
62791;BME280;48830;53.426;10.300;2023-05-23T02:44:46;101171.56;;;17.28;100.00
62791;BME280;48830;53.426;10.300;2023-05-23T02:47:12;101169.84;;;17.26;100.00
62791;BME280;48830;53.426;10.300;2023-05-23T02:49:37;101171.63;;;17.22;100.00
62791;BME280;48830;53.426;10.300;2023-05-23T02:52:05;101177.66;;;17.24;100.00
62791;BME280;48830;53.426;10.300;2023-05-23T02:54:31;101184.59;;;17.21;100.00
62791;BME280;48830;53.426;10.300;2023-05-23T02:56:56;101181.19;;;17.14;100.00
62791;BME280;48830;53.426;10.300;2023-05-23T02:59:22;101186.38;;;17.13;100.00
62791;BME280;48830;53.426;10.300;2023-05-23T03:01:48;101188.09;;;17.14;100.00
62791;BME280;48830;53.426;10.300;2023-05-23T03:04:13;101194.19;;;17.05;100.00
62791;BME280;48830;53.426;10.300;2023-05-23T03:06:39;101193.31;;;17.09;100.00
62791;BME280;48830;53.426;10.300;2023-05-23T03:09:07;101188.09;;;17.11;100.00
62791;BME280;48830;53.426;10.300;2023-05-23T03:11:32;101191.63;;;17.03;100.00
62791;BME280;48830;53.426;10.300;2023-05-23T03:13:58;101197.72;;;17.01;100.00
62791;BME280;48830;53.426;10.300;2023-05-23T03:16:23;101196.88;;;16.88;100.00
62791;BME280;48830;53.426;10.300;2023-05-23T03:18:49;101195.16;;;16.90;100.00
62791;BME280;48830;53.426;10.300;2023-05-23T03:21:15;101193.44;;;16.83;100.00
62791;BME280;48830;53.426;10.300;2023-05-23T03:23:41;101184.78;;;16.87;100.00
62791;BME280;48830;53.426;10.300;2023-05-23T03:26:06;101189.97;;;16.84;100.00
62791;BME280;48830;53.426;10.300;2023-05-23T03:28:32;101191.69;;;16.88;100.00
62791;BME280;48830;53.426;10.300;2023-05-23T03:30:58;101189.97;;;16.84;100.00
62791;BME280;48830;53.426;10.300;2023-05-23T03:33:23;101202.94;;;16.84;100.00
62791;BME280;48830;53.426;10.300;2023-05-23T03:35:49;101196.88;;;16.88;100.00
62791;BME280;48830;53.426;10.300;2023-05-23T03:38:15;101202.91;;;16.93;100.00
62791;BME280;48830;53.426;10.300;2023-05-23T03:40:41;101200.34;;;16.87;100.00
62791;BME280;48830;53.426;10.300;2023-05-23T03:43:07;101190.00;;;16.79;100.00
62791;BME280;48830;53.426;10.300;2023-05-23T03:45:35;101192.63;;;16.75;100.00
62791;BME280;48830;53.426;10.300;2023-05-23T03:48:05;101194.34;;;16.71;100.00
62791;BME280;48830;53.426;10.300;2023-05-23T03:50:30;101192.59;;;16.67;100.00
62791;BME280;48830;53.426;10.300;2023-05-23T03:52:56;101193.44;;;16.68;100.00
62791;BME280;48830;53.426;10.300;2023-05-23T03:55:23;101192.63;;;16.61;100.00
62791;BME280;48830;53.426;10.300;2023-05-23T03:57:49;101197.81;;;16.64;100.00
62791;BME280;48830;53.426;10.300;2023-05-23T04:00:17;101194.38;;;16.58;100.00
62791;BME280;48830;53.426;10.300;2023-05-23T04:02:43;101198.69;;;16.59;100.00
62791;BME280;48830;53.426;10.300;2023-05-23T04:05:11;101196.09;;;16.49;100.00
62791;BME280;48830;53.426;10.300;2023-05-23T04:07:38;101203.91;;;16.49;100.00
62791;BME280;48830;53.426;10.300;2023-05-23T04:10:06;101199.56;;;16.51;100.00
62791;BME280;48830;53.426;10.300;2023-05-23T04:12:32;101199.59;;;16.47;100.00
62791;BME280;48830;53.426;10.300;2023-05-23T04:14:57;101199.56;;;16.51;100.00
62791;BME280;48830;53.426;10.300;2023-05-23T04:17:23;101209.94;;;16.51;100.00
62791;BME280;48830;53.426;10.300;2023-05-23T04:19:50;101202.16;;;16.50;100.00
62791;BME280;48830;53.426;10.300;2023-05-23T04:22:15;101201.28;;;16.51;100.00
62791;BME280;48830;53.426;10.300;2023-05-23T04:24:42;101200.44;;;16.50;100.00
62791;BME280;48830;53.426;10.300;2023-05-23T04:27:08;101200.44;;;16.47;100.00
62791;BME280;48830;53.426;10.300;2023-05-23T04:29:35;101195.25;;;16.50;100.00
62791;BME280;48830;53.426;10.300;2023-05-23T04:32:04;101196.97;;;16.45;100.00
62791;BME280;48830;53.426;10.300;2023-05-23T04:34:31;101194.41;;;16.47;100.00
62791;BME280;48830;53.426;10.300;2023-05-23T04:37:01;101192.69;;;16.38;100.00
62791;BME280;48830;53.426;10.300;2023-05-23T04:39:30;101198.75;;;16.28;100.00
62791;BME280;48830;53.426;10.300;2023-05-23T04:42:14;101202.22;;;16.21;100.00
62791;BME280;48830;53.426;10.300;2023-05-23T04:44:53;101205.69;;;16.17;100.00
62791;BME280;48830;53.426;10.300;2023-05-23T04:47:35;101205.69;;;16.20;100.00
62791;BME280;48830;53.426;10.300;2023-05-23T04:50:04;101206.53;;;16.17;100.00
62791;BME280;48830;53.426;10.300;2023-05-23T04:52:30;101210.00;;;16.16;100.00
62791;BME280;48830;53.426;10.300;2023-05-23T04:54:59;101208.28;;;16.15;100.00
62791;BME280;48830;53.426;10.300;2023-05-23T04:57:24;101206.53;;;16.08;100.00
62791;BME280;48830;53.426;10.300;2023-05-23T04:59:50;101210.00;;;16.01;100.00
62791;BME280;48830;53.426;10.300;2023-05-23T05:02:15;101209.16;;;16.04;100.00
62791;BME280;48830;53.426;10.300;2023-05-23T05:04:41;101205.69;;;16.05;100.00
62791;BME280;48830;53.426;10.300;2023-05-23T05:07:06;101201.38;;;15.90;100.00
62791;BME280;48830;53.426;10.300;2023-05-23T05:09:32;101204.81;;;15.80;100.00
62791;BME280;48830;53.426;10.300;2023-05-23T05:11:58;101209.16;;;15.79;100.00
62791;BME280;48830;53.426;10.300;2023-05-23T05:14:24;101213.44;;;15.82;100.00
62791;BME280;48830;53.426;10.300;2023-05-23T05:16:50;101222.97;;;15.90;100.00
62791;BME280;48830;53.426;10.300;2023-05-23T05:19:18;101219.53;;;15.85;100.00
62791;BME280;48830;53.426;10.300;2023-05-23T05:21:44;101221.25;;;15.80;100.00
62791;BME280;48830;53.426;10.300;2023-05-23T05:24:10;101222.97;;;15.87;100.00
62791;BME280;48830;53.426;10.300;2023-05-23T05:26:35;101219.50;;;15.81;100.00
62791;BME280;48830;53.426;10.300;2023-05-23T05:29:01;101227.28;;;15.76;100.00
62791;BME280;48830;53.426;10.300;2023-05-23T05:31:27;101222.09;;;15.81;100.00
62791;BME280;48830;53.426;10.300;2023-05-23T05:33:54;101228.16;;;15.81;100.00
62791;BME280;48830;53.426;10.300;2023-05-23T05:36:19;101227.28;;;15.87;100.00
62791;BME280;48830;53.426;10.300;2023-05-23T05:38:46;101223.84;;;15.88;100.00
62791;BME280;48830;53.426;10.300;2023-05-23T05:41:12;101218.66;;;15.85;100.00
62791;BME280;48830;53.426;10.300;2023-05-23T05:43:42;101223.84;;;15.88;100.00
62791;BME280;48830;53.426;10.300;2023-05-23T05:46:09;101227.31;;;15.93;100.00
62791;BME280;48830;53.426;10.300;2023-05-23T05:48:35;101222.97;;;15.84;100.00
62791;BME280;48830;53.426;10.300;2023-05-23T05:51:05;101224.69;;;15.91;100.00
62791;BME280;48830;53.426;10.300;2023-05-23T05:53:32;101228.16;;;15.89;100.00
62791;BME280;48830;53.426;10.300;2023-05-23T05:55:58;101229.88;;;15.85;100.00
62791;BME280;48830;53.426;10.300;2023-05-23T05:58:24;101233.34;;;15.90;100.00
62791;BME280;48830;53.426;10.300;2023-05-23T06:00:59;101226.44;;;15.89;100.00
62791;BME280;48830;53.426;10.300;2023-05-23T06:03:25;101222.97;;;15.81;100.00
62791;BME280;48830;53.426;10.300;2023-05-23T06:05:53;101223.81;;;15.82;100.00
62791;BME280;48830;53.426;10.300;2023-05-23T06:08:19;101233.34;;;15.81;100.00
62791;BME280;48830;53.426;10.300;2023-05-23T06:10:45;101233.38;;;15.93;100.00
62791;BME280;48830;53.426;10.300;2023-05-23T06:13:10;101238.53;;;15.87;100.00
62791;BME280;48830;53.426;10.300;2023-05-23T06:15:37;101234.22;;;15.95;100.00
62791;BME280;48830;53.426;10.300;2023-05-23T06:18:03;101226.44;;;15.97;100.00
62791;BME280;48830;53.426;10.300;2023-05-23T06:20:30;101240.28;;;16.00;100.00
62791;BME280;48830;53.426;10.300;2023-05-23T06:22:58;101236.81;;;16.05;100.00
62791;BME280;48830;53.426;10.300;2023-05-23T06:25:24;101237.66;;;16.08;100.00
62791;BME280;48830;53.426;10.300;2023-05-23T06:27:50;101237.69;;;16.05;100.00
62791;BME280;48830;53.426;10.300;2023-05-23T06:30:15;101238.53;;;15.99;100.00
62791;BME280;48830;53.426;10.300;2023-05-23T06:32:41;101243.72;;;15.96;100.00
62791;BME280;48830;53.426;10.300;2023-05-23T06:35:06;101245.47;;;16.00;100.00
62791;BME280;48830;53.426;10.300;2023-05-23T06:37:33;101245.44;;;16.08;100.00
62791;BME280;48830;53.426;10.300;2023-05-23T06:39:59;101233.34;;;16.06;100.00
62791;BME280;48830;53.426;10.300;2023-05-23T06:42:26;101242.00;;;16.05;100.00
62791;BME280;48830;53.426;10.300;2023-05-23T06:45:14;101240.28;;;16.10;100.00
62791;BME280;48830;53.426;10.300;2023-05-23T06:47:40;101242.00;;;16.20;100.00
62791;BME280;48830;53.426;10.300;2023-05-23T06:50:08;101248.06;;;16.20;100.00
62791;BME280;48830;53.426;10.300;2023-05-23T06:52:34;101238.53;;;16.21;100.00
62791;BME280;48830;53.426;10.300;2023-05-23T06:55:01;101241.13;;;16.25;100.00
62791;BME280;48830;53.426;10.300;2023-05-23T06:57:26;101240.25;;;16.28;100.00
62791;BME280;48830;53.426;10.300;2023-05-23T06:59:52;101245.44;;;16.25;100.00
62791;BME280;48830;53.426;10.300;2023-05-23T07:02:17;101242.84;;;16.31;100.00
62791;BME280;48830;53.426;10.300;2023-05-23T07:04:43;101248.88;;;16.35;100.00
62791;BME280;48830;53.426;10.300;2023-05-23T07:07:15;101244.59;;;16.37;100.00
62791;BME280;48830;53.426;10.300;2023-05-23T07:09:42;101252.34;;;16.38;100.00
62791;BME280;48830;53.426;10.300;2023-05-23T07:12:12;101248.88;;;16.39;100.00
62791;BME280;48830;53.426;10.300;2023-05-23T07:14:40;101254.06;;;16.39;100.00
62791;BME280;48830;53.426;10.300;2023-05-23T07:17:06;101247.19;;;16.41;100.00
62791;BME280;48830;53.426;10.300;2023-05-23T07:19:33;101254.06;;;16.39;100.00
62791;BME280;48830;53.426;10.300;2023-05-23T07:21:59;101261.00;;;16.37;100.00
62791;BME280;48830;53.426;10.300;2023-05-23T07:24:24;101261.00;;;16.37;100.00
62791;BME280;48830;53.426;10.300;2023-05-23T07:26:50;101257.53;;;16.38;100.00
62791;BME280;48830;53.426;10.300;2023-05-23T07:29:16;101260.16;;;16.31;100.00
62791;BME280;48830;53.426;10.300;2023-05-23T07:31:43;101260.16;;;16.32;100.00
62791;BME280;48830;53.426;10.300;2023-05-23T07:34:11;101259.28;;;16.33;100.00
62791;BME280;48830;53.426;10.300;2023-05-23T07:36:45;101262.75;;;16.32;100.00
62791;BME280;48830;53.426;10.300;2023-05-23T07:39:12;101261.00;;;16.34;100.00
62791;BME280;48830;53.426;10.300;2023-05-23T07:41:39;101264.47;;;16.36;100.00
62791;BME280;48830;53.426;10.300;2023-05-23T07:44:05;101271.38;;;16.43;100.00
62791;BME280;48830;53.426;10.300;2023-05-23T07:46:31;101269.66;;;16.48;100.00
62791;BME280;48830;53.426;10.300;2023-05-23T07:48:57;101277.44;;;16.47;100.00
62791;BME280;48830;53.426;10.300;2023-05-23T07:51:22;101273.09;;;16.44;100.00
62791;BME280;48830;53.426;10.300;2023-05-23T07:53:49;101273.97;;;16.25;100.00
62791;BME280;48830;53.426;10.300;2023-05-23T07:56:16;101274.00;;;16.16;100.00
62791;BME280;48830;53.426;10.300;2023-05-23T07:58:42;101280.91;;;16.12;100.00
62791;BME280;48830;53.426;10.300;2023-05-23T08:01:08;101283.50;;;16.20;100.00
62791;BME280;48830;53.426;10.300;2023-05-23T08:03:53;101289.53;;;16.07;100.00
62791;BME280;48830;53.426;10.300;2023-05-23T08:06:26;101289.53;;;16.11;100.00
62791;BME280;48830;53.426;10.300;2023-05-23T08:08:52;101292.13;;;16.07;100.00
62791;BME280;48830;53.426;10.300;2023-05-23T08:11:17;101295.59;;;16.10;100.00
62791;BME280;48830;53.426;10.300;2023-05-23T08:13:48;101296.47;;;16.12;100.00
62791;BME280;48830;53.426;10.300;2023-05-23T08:16:33;101304.22;;;16.01;100.00
62791;BME280;48830;53.426;10.300;2023-05-23T08:18:59;101306.84;;;16.20;100.00
62791;BME280;48830;53.426;10.300;2023-05-23T08:21:24;101306.84;;;16.40;100.00
62791;BME280;48830;53.426;10.300;2023-05-23T08:23:50;101322.41;;;16.49;100.00
62791;BME280;48830;53.426;10.300;2023-05-23T08:26:16;101320.69;;;16.52;100.00
62791;BME280;48830;53.426;10.300;2023-05-23T08:28:42;101326.72;;;16.50;100.00
62791;BME280;48830;53.426;10.300;2023-05-23T08:31:07;101330.19;;;16.49;100.00
62791;BME280;48830;53.426;10.300;2023-05-23T08:33:33;101332.78;;;16.60;100.00
62791;BME280;48830;53.426;10.300;2023-05-23T08:35:58;101330.19;;;16.57;100.00
62791;BME280;48830;53.426;10.300;2023-05-23T08:38:24;101335.38;;;16.57;100.00
62791;BME280;48830;53.426;10.300;2023-05-23T08:41:04;101339.69;;;16.61;100.00
62791;BME280;48830;53.426;10.300;2023-05-23T08:43:37;101339.72;;;16.53;100.00
62791;BME280;48830;53.426;10.300;2023-05-23T08:46:03;101340.56;;;16.57;100.00
62791;BME280;48830;53.426;10.300;2023-05-23T08:48:30;101349.19;;;16.68;100.00
62791;BME280;48830;53.426;10.300;2023-05-23T08:50:57;101357.00;;;16.69;100.00
62791;BME280;48830;53.426;10.300;2023-05-23T08:53:25;101363.06;;;16.51;100.00
62791;BME280;48830;53.426;10.300;2023-05-23T08:55:58;101357.03;;;16.52;100.00
62791;BME280;48830;53.426;10.300;2023-05-23T08:58:33;101364.84;;;16.74;100.00
62791;BME280;48830;53.426;10.300;2023-05-23T09:01:00;101358.72;;;16.57;100.00
62791;BME280;48830;53.426;10.300;2023-05-23T09:03:26;101360.47;;;16.68;100.00
62791;BME280;48830;53.426;10.300;2023-05-23T09:06:19;101367.38;;;16.65;100.00
62791;BME280;48830;53.426;10.300;2023-05-23T09:08:46;101370.00;;;16.59;100.00
62791;BME280;48830;53.426;10.300;2023-05-23T09:11:13;101373.47;;;16.58;100.00
62791;BME280;48830;53.426;10.300;2023-05-23T09:13:40;101380.41;;;16.74;100.00
62791;BME280;48830;53.426;10.300;2023-05-23T09:16:09;101382.09;;;16.66;100.00
62791;BME280;48830;53.426;10.300;2023-05-23T09:18:48;101389.03;;;16.54;100.00
62791;BME280;48830;53.426;10.300;2023-05-23T09:21:15;101385.56;;;16.59;100.00
62791;BME280;48830;53.426;10.300;2023-05-23T09:24:10;101395.97;;;16.74;100.00
62791;BME280;48830;53.426;10.300;2023-05-23T09:26:36;101408.91;;;17.00;100.00
62791;BME280;48830;53.426;10.300;2023-05-23T09:29:04;101402.88;;;16.99;100.00
62791;BME280;48830;53.426;10.300;2023-05-23T09:31:31;101408.94;;;16.83;100.00
62791;BME280;48830;53.426;10.300;2023-05-23T09:33:57;101413.25;;;16.99;100.00
62791;BME280;48830;53.426;10.300;2023-05-23T09:36:26;101424.53;;;16.82;100.00
62791;BME280;48830;53.426;10.300;2023-05-23T09:38:53;101427.09;;;16.63;100.00
62791;BME280;48830;53.426;10.300;2023-05-23T09:41:19;101432.28;;;16.62;100.00
62791;BME280;48830;53.426;10.300;2023-05-23T09:43:53;101431.41;;;16.57;100.00
62791;BME280;48830;53.426;10.300;2023-05-23T09:46:20;101440.91;;;16.39;100.00
62791;BME280;48830;53.426;10.300;2023-05-23T09:48:49;101439.16;;;16.20;100.00
62791;BME280;48830;53.426;10.300;2023-05-23T09:51:20;101437.41;;;16.25;100.00
62791;BME280;48830;53.426;10.300;2023-05-23T09:53:46;101444.31;;;16.23;100.00
62791;BME280;48830;53.426;10.300;2023-05-23T09:56:15;101446.88;;;16.08;100.00
62791;BME280;48830;53.426;10.300;2023-05-23T09:58:45;101445.97;;;16.02;100.00
62791;BME280;48830;53.426;10.300;2023-05-23T10:01:11;101450.31;;;15.99;100.00
62791;BME280;48830;53.426;10.300;2023-05-23T10:03:48;101456.28;;;15.87;100.00
62791;BME280;48830;53.426;10.300;2023-05-23T10:09:24;101472.44;;;15.43;100.00
62791;BME280;48830;53.426;10.300;2023-05-23T10:14:56;101473.16;;;15.18;100.00
62791;BME280;48830;53.426;10.300;2023-05-23T10:20:03;101489.47;;;15.08;100.00
62791;BME280;48830;53.426;10.300;2023-05-23T10:22:35;101492.88;;;15.04;100.00
62791;BME280;48830;53.426;10.300;2023-05-23T10:25:03;101502.38;;;15.02;100.00
62791;BME280;48830;53.426;10.300;2023-05-23T10:27:30;101497.16;;;14.97;100.00
62791;BME280;48830;53.426;10.300;2023-05-23T10:29:56;101507.38;;;14.80;100.00
62791;BME280;48830;53.426;10.300;2023-05-23T10:32:23;101507.38;;;14.83;100.00
62791;BME280;48830;53.426;10.300;2023-05-23T10:35:11;101521.38;;;15.02;100.00
62791;BME280;48830;53.426;10.300;2023-05-23T10:38:00;101516.91;;;14.89;100.00
62791;BME280;48830;53.426;10.300;2023-05-23T10:43:07;101521.97;;;14.75;100.00
62791;BME280;48830;53.426;10.300;2023-05-23T10:45:41;101533.19;;;14.77;100.00
62791;BME280;48830;53.426;10.300;2023-05-23T10:48:33;101534.91;;;14.75;100.00
62791;BME280;48830;53.426;10.300;2023-05-23T10:51:13;101535.75;;;14.73;100.00
62791;BME280;48830;53.426;10.300;2023-05-23T10:53:52;101545.97;;;14.63;100.00
62791;BME280;48830;53.426;10.300;2023-05-23T10:56:20;101545.00;;;14.52;100.00
62791;BME280;48830;53.426;10.300;2023-05-23T10:58:52;101551.94;;;14.56;100.00
62791;BME280;48830;53.426;10.300;2023-05-23T11:01:18;101544.19;;;14.55;100.00
62791;BME280;48830;53.426;10.300;2023-05-23T11:06:36;101554.47;;;14.50;100.00
62791;BME280;48830;53.426;10.300;2023-05-23T11:09:13;101555.44;;;14.60;100.00
62791;BME280;48830;53.426;10.300;2023-05-23T11:12:00;101554.66;;;14.68;100.00
62791;BME280;48830;53.426;10.300;2023-05-23T11:16:55;101566.78;;;14.73;100.00
62791;BME280;48830;53.426;10.300;2023-05-23T11:19:26;101572.81;;;14.70;100.00
62791;BME280;48830;53.426;10.300;2023-05-23T11:24:51;101583.91;;;14.58;100.00
62791;BME280;48830;53.426;10.300;2023-05-23T11:27:25;101582.22;;;14.63;100.00
62791;BME280;48830;53.426;10.300;2023-05-23T11:32:31;101590.75;;;14.55;100.00
62791;BME280;48830;53.426;10.300;2023-05-23T11:35:05;101588.28;;;14.67;100.00
62791;BME280;48830;53.426;10.300;2023-05-23T11:37:31;101591.69;;;14.60;100.00
62791;BME280;48830;53.426;10.300;2023-05-23T11:39:58;101583.84;;;14.54;100.00
62791;BME280;48830;53.426;10.300;2023-05-23T11:42:23;101590.78;;;14.58;100.00
62791;BME280;48830;53.426;10.300;2023-05-23T11:44:50;101593.56;;;14.75;100.00
62791;BME280;48830;53.426;10.300;2023-05-23T11:47:16;101591.06;;;14.82;100.00
62791;BME280;48830;53.426;10.300;2023-05-23T11:49:44;101600.56;;;14.85;100.00
62791;BME280;48830;53.426;10.300;2023-05-23T11:52:11;101602.50;;;15.03;100.00
62791;BME280;48830;53.426;10.300;2023-05-23T11:54:39;101602.75;;;15.30;100.00
62791;BME280;48830;53.426;10.300;2023-05-23T11:57:05;101604.72;;;15.57;100.00
62791;BME280;48830;53.426;10.300;2023-05-23T11:59:31;101609.31;;;15.98;100.00
62791;BME280;48830;53.426;10.300;2023-05-23T12:01:56;101605.81;;;15.87;100.00
62791;BME280;48830;53.426;10.300;2023-05-23T12:04:24;101609.28;;;15.90;100.00
62791;BME280;48830;53.426;10.300;2023-05-23T12:06:51;101614.44;;;15.87;100.00
62791;BME280;48830;53.426;10.300;2023-05-23T12:09:16;101601.66;;;16.10;97.03
62791;BME280;48830;53.426;10.300;2023-05-23T12:11:43;101617.50;;;16.73;94.27
62791;BME280;48830;53.426;10.300;2023-05-23T12:14:14;101617.59;;;16.90;91.11
62791;BME280;48830;53.426;10.300;2023-05-23T12:16:42;101609.69;;;16.70;90.75
62791;BME280;48830;53.426;10.300;2023-05-23T12:19:08;101616.59;;;16.68;92.53
62791;BME280;48830;53.426;10.300;2023-05-23T12:21:42;101623.44;;;16.50;93.50
62791;BME280;48830;53.426;10.300;2023-05-23T12:24:18;101621.75;;;16.59;96.60
62791;BME280;48830;53.426;10.300;2023-05-23T12:26:58;101616.47;;;16.39;94.38
62791;BME280;48830;53.426;10.300;2023-05-23T12:29:33;101613.09;;;16.61;95.62
62791;BME280;48830;53.426;10.300;2023-05-23T12:32:03;101628.84;;;17.02;92.93
62791;BME280;48830;53.426;10.300;2023-05-23T12:34:29;101615.91;;;17.48;88.35
62791;BME280;48830;53.426;10.300;2023-05-23T12:36:55;101621.97;;;17.79;84.12
62791;BME280;48830;53.426;10.300;2023-05-23T12:39:26;101636.75;;;17.82;83.66
62791;BME280;48830;53.426;10.300;2023-05-23T12:41:52;101621.03;;;18.22;80.96
62791;BME280;48830;53.426;10.300;2023-05-23T12:44:20;101624.56;;;18.01;80.88
62791;BME280;48830;53.426;10.300;2023-05-23T12:46:46;101629.72;;;18.22;77.32
62791;BME280;48830;53.426;10.300;2023-05-23T12:49:12;101635.72;;;18.47;74.89
62791;BME280;48830;53.426;10.300;2023-05-23T12:51:38;101634.91;;;18.25;75.96
62791;BME280;48830;53.426;10.300;2023-05-23T12:54:04;101634.97;;;17.99;76.57
62791;BME280;48830;53.426;10.300;2023-05-23T12:56:29;101645.38;;;17.99;76.66
62791;BME280;48830;53.426;10.300;2023-05-23T12:58:55;101642.78;;;18.08;74.33
62791;BME280;48830;53.426;10.300;2023-05-23T13:01:21;101640.81;;;18.67;73.94
62791;BME280;48830;53.426;10.300;2023-05-23T13:03:46;101637.16;;;19.05;73.94